バンギ・ムポコ国際空港の過去48時間の天気

バンギ・ムポコ国際空港 (Bangui)

現在時刻: 9/22 22:20 WAT (9/22 21:20 UTC) 以下の時間は現地時間です。

過去48時間のMETAR気象情報
時間 風向 風速(m/s) 視程 気温(℃) 湿度(%) 気圧(hPa) 天気現象
22 21:00 静穏 0 6000m 27 94 1010
22 20:00 静穏 0 6000m 29 89 1010
22 19:00 静穏 0 10km以上 29 84 1009
22 18:00 不定 1 10km以上 31 79 1008
22 17:00 南西 2 10km以上 32 59 1008
22 16:00 2 10km以上 33 53 1008
22 15:00 南南西 3 10km以上 34 47 1008
22 14:00 不定 2 10km以上 33 46 1008
22 13:00 不定 2 10km以上 32 52 1009
22 12:00 南西 2 10km以上 30 59 1010
22 11:00 3 10km以上 28 62 1012
22 10:00 南南西 2 10km以上 26 70 1013
22 09:00 不定 1 10km以上 25 78 1013
22 08:00 不定 1 6000m 22 88 1013
22 07:00 西南西 2 3000m 21 100 1012 もや
22 06:00 静穏 0 7000m 22 100 1012
22 05:00 静穏 0 10km以上 22 100 1011
22 04:00 静穏 0 10km以上 22 100 1011
22 03:00 静穏 0 10km以上 22 100 1010
22 02:00 静穏 0 8000m 22 100 1011
22 01:00 不定 2 8000m 22 100 1011
22 00:00 西南西 2 8000m 22 100 1011
21 23:00 西南西 2 8000m 24 94 1012
21 22:00 西 3 10km以上 24 94 1012
21 21:00 静穏 0 10km以上 24 89 1012
21 20:00 不定 1 10km以上 24 89 1012
21 19:00 不定 2 10km以上 25 89 1011
21 18:00 不定 2 10km以上 26 89 1010
21 16:00 西北西 2 10km以上 30 66 1010
21 15:00 南南西 3 10km以上 31 55 1009
21 12:00 4 10km以上 28 62 1011
21 11:00 南南西 4 10km以上 28 70 1012
21 10:00 南西 3 10km以上 26 74 1013
21 09:00 不定 1 10km以上 24 83 1014 弱い雨
21 08:00 静穏 0 10km以上 24 83 1014 弱い雨
21 07:00 静穏 0 8000m 23 100 1014
21 06:00 不定 1 8000m 22 100 1013 弱い雨
21 05:00 静穏 0 8000m 23 94 1012
21 04:00 静穏 0 8000m 23 100 1012
21 03:00 静穏 0 8000m 23 100 1012
21 02:00 静穏 0 8000m 23 100 1011
21 01:00 不定 2 8000m 24 94 1012
21 00:00 西南西 2 8000m 24 94 1012
20 23:00 不定 2 8000m 25 94 1013
FEFF 222000Z 00000KT 6000 FEW013 27/26 Q1010 NOSIG
FEFF 221900Z 00000KT 6000 FEW013 29/27 Q1010 NOSIG
FEFF 221800Z 00000KT 9999 FEW013 FEW033CB 29/26 Q1009 TEMPO TS
FEFF 221700Z VRB02KT 9999 FEW013 FEW033CB 31/27 Q1008 NOSIG
FEFF 221600Z 23004KT 9999 SCT020 32/23 Q1008 NOSIG
FEFF 221500Z 18004KT 9999 SCT026 FEW033CB 33/22 Q1008 NOSIG
FEFF 221400Z 20006KT 9999 SCT026 FEW033CB 34/21 Q1008 NOSIG
FEFF 221300Z VRB03KT 9999 SCT026 33/20 Q1008 NOSIG
FEFF 221200Z VRB03KT 9999 SCT023 32/21 Q1009 NOSIG
FEFF 221100Z 22004KT 9999 SCT020 30/21 Q1010 NOSIG
FEFF 221000Z 18005KT 9999 SCT016 28/20 Q1012 NOSIG
FEFF 220900Z 20004KT 9999 SCT016 26/20 Q1013 NOSIG
FEFF 220800Z VRB02KT 9999 SCT013 25/21 Q1013 NOSIG
FEFF 220700Z VRB02KT 6000 SCT005 22/20 Q1013 NOSIG
FEFF 220600Z 25003KT 3000 BR BKN003 21/21 Q1012 BECMG 6000 NSW
FEFF 220500Z 00000KT 7000 SCT004 22/22 Q1012 TEMPO 4000 BR
FEFF 220400Z 00000KT CAVOK 22/22 Q1011 NOSIG
FEFF 220300Z 00000KT CAVOK 22/22 Q1011 NOSIG
FEFF 220200Z 00000KT CAVOK 22/22 Q1010 NOSIG
FEFF 220100Z 00000KT 8000 FEW007 22/22 Q1011 NOSIG
FEFF 220000Z VRB03KT 8000 FEW007 22/22 Q1011 NOSIG
FEFF 212300Z 25004KT 8000 FEW007 22/22 Q1011 NOSIG
FEFF 212200Z 24004KT 8000 FEW007 24/23 Q1012 NOSIG
FEFF 212100Z 28005KT 9999 SCT007 24/23 Q1012 RETS NOSIG
FEFF 212000Z 00000KT 9999 TS FEW010 FEW033CB 24/22 Q1012 BECMG NSW
FEFF 211900Z VRB02KT 9999 TS FEW010 FEW033CB 24/22 Q1012 NOSIG
FEFF 211800Z VRB03KT 9999 TS SCT013 FEW033CB 25/23 Q1011 NOSIG
FEFF 211700Z VRB03KT 9999 TS SCT016 FEW033CB 26/24 Q1010 NOSIG
FEFF 211500Z 29004KT 9999 TS SCT016 FEW033CB 30/23 Q1010 TEMPO TSRA
FEFF 211400Z 20005KT 9999 SCT020 FEW040CB 31/21 Q1009 NOSIG
FEFF 211100Z 19008KT 9999 SCT020 28/20 Q1011 NOSIG
FEFF 211000Z 21007KT 9999 FEW020 28/22 Q1012 NOSIG
FEFF 210900Z 22005KT 9999 FEW016 26/21 Q1013 NOSIG
FEFF 210800Z VRB02KT 9999 -RA FEW010 FEW033CB 24/21 Q1014 NOSIG
FEFF 210700Z 00000KT 9999 -RA FEW010 FEW033CB 24/21 Q1014 NOSIG
FEFF 210600Z 00000KT 8000 FEW007 FEW033CB 23/23 Q1014 RERA NOSIG
FEFF 210500Z VRB02KT 8000 -RA FEW004 FEW033CB 22/22 Q1013 NOSIG
FEFF 210400Z 00000KT 8000 FEW006 23/22 Q1012 NOSIG
FEFF 210300Z 00000KT 8000 FEW006 23/23 Q1012 NOSIG
FEFF 210200Z 00000KT 8000 FEW006 23/23 Q1012 NOSIG
FEFF 210100Z 00000KT 8000 FEW010 23/23 Q1011 RETS NOSIG
FEFF 210000Z VRB03KT 8000 TS FEW010 FEW033CB 24/23 Q1012 BECMG NSW
FEFF 202300Z 25004KT 8000 TS FEW010 FEW033CB 24/23 Q1012 NOSIG
FEFF 202200Z VRB04KT 8000 TS FEW010 SCT033CB 25/24 Q1013 NOSIG